createdAt,value
2018-12-13T00:00:36.290Z,4.77
2018-12-13T00:03:07.738Z,11.57
2018-12-13T00:05:36.482Z,3.53
2018-12-13T00:08:05.142Z,6.97
2018-12-13T00:10:33.879Z,6.90
2018-12-13T00:13:03.740Z,5.80
2018-12-13T00:15:32.563Z,3.83
2018-12-13T00:18:02.401Z,2.40
2018-12-13T00:20:31.153Z,4.23
2018-12-13T00:22:59.770Z,4.73
2018-12-13T00:25:28.386Z,4.67
2018-12-13T00:27:56.803Z,4.57
2018-12-13T00:30:25.303Z,13.20
2018-12-13T00:32:53.850Z,3.83
2018-12-13T00:35:24.111Z,10.27
2018-12-13T00:37:53.523Z,2.10
2018-12-13T00:40:22.048Z,3.10
2018-12-13T00:42:50.533Z,3.03
2018-12-13T00:45:19.441Z,7.03
2018-12-13T00:47:48.671Z,5.90
2018-12-13T00:50:17.005Z,4.03
2018-12-13T00:52:45.423Z,2.90
2018-12-13T00:55:13.752Z,2.77
2018-12-13T00:57:42.155Z,2.17
2018-12-13T01:00:10.647Z,3.20
2018-12-13T01:02:39.028Z,6.35
2018-12-13T01:05:07.481Z,3.27
2018-12-13T01:07:35.907Z,2.20
2018-12-13T01:10:04.828Z,5.07
2018-12-13T01:12:33.893Z,4.80
2018-12-13T01:15:02.205Z,7.70
2018-12-13T01:17:31.549Z,3.20
2018-12-13T01:19:59.932Z,3.67
2018-12-13T01:22:28.615Z,5.30
2018-12-13T01:24:56.864Z,4.07
2018-12-13T01:27:25.252Z,1.60
2018-12-13T01:29:53.614Z,3.60
2018-12-13T01:32:22.020Z,4.70
2018-12-13T01:34:50.300Z,5.00
2018-12-13T01:37:19.745Z,3.60
2018-12-13T01:39:48.028Z,5.33
2018-12-13T01:42:16.401Z,5.43
2018-12-13T01:44:44.901Z,4.70
2018-12-13T01:47:13.566Z,6.63
2018-12-13T01:49:41.784Z,10.63
2018-12-13T01:52:10.113Z,2.97
2018-12-13T01:54:38.427Z,3.60
2018-12-13T01:57:06.677Z,4.90
2018-12-13T01:59:34.972Z,4.07
2018-12-13T02:02:03.257Z,4.17
2018-12-13T02:04:31.620Z,3.73
2018-12-13T02:06:59.917Z,6.67
2018-12-13T02:09:28.222Z,4.23
2018-12-13T02:11:56.477Z,8.77
2018-12-13T02:14:24.725Z,3.73
2018-12-13T02:16:53.138Z,5.00
2018-12-13T02:19:21.371Z,6.50
2018-12-13T02:21:49.648Z,3.47
2018-12-13T02:24:17.927Z,3.10
2018-12-13T02:26:46.233Z,4.53
2018-12-13T02:29:14.469Z,3.80
2018-12-13T02:31:42.971Z,6.00
2018-12-13T02:34:11.238Z,6.90
2018-12-13T02:36:39.596Z,1.63
2018-12-13T02:39:07.872Z,9.53
2018-12-13T02:41:36.205Z,8.03
2018-12-13T02:44:04.842Z,2.57
2018-12-13T02:46:33.162Z,6.60
2018-12-13T02:49:10.871Z,5.00
2018-12-13T02:51:39.303Z,2.63
2018-12-13T02:54:07.671Z,14.23
2018-12-13T02:56:35.956Z,9.93
2018-12-13T02:59:04.486Z,3.60
2018-12-13T03:01:32.743Z,4.03
2018-12-13T03:04:01.008Z,5.37
2018-12-13T03:06:29.310Z,4.50
2018-12-13T03:08:57.581Z,7.30
2018-12-13T03:11:25.938Z,9.33
2018-12-13T03:13:54.211Z,4.07
2018-12-13T03:16:22.603Z,3.17
2018-12-13T03:18:50.864Z,5.30
2018-12-13T03:21:19.142Z,3.10
2018-12-13T03:23:47.497Z,5.97
2018-12-13T03:26:15.957Z,3.90
2018-12-13T03:28:44.289Z,8.00
2018-12-13T03:31:13.716Z,3.03
2018-12-13T03:33:42.077Z,3.20
2018-12-13T03:36:11.176Z,3.17
2018-12-13T03:38:39.472Z,3.70
2018-12-13T03:41:07.840Z,2.53
2018-12-13T03:43:36.089Z,2.67
2018-12-13T03:46:04.409Z,3.43
2018-12-13T03:48:32.767Z,6.07
2018-12-13T03:51:01.050Z,2.80
2018-12-13T03:53:29.428Z,4.20
2018-12-13T03:55:57.787Z,3.10
2018-12-13T03:58:26.153Z,3.33
2018-12-13T04:00:54.446Z,2.43
2018-12-13T04:03:22.732Z,11.33
2018-12-13T04:05:51.125Z,3.13
2018-12-13T04:08:19.377Z,3.50
2018-12-13T04:10:47.821Z,4.10
2018-12-13T04:13:16.104Z,10.23
2018-12-13T04:15:44.533Z,4.43
2018-12-13T04:18:12.993Z,3.60
2018-12-13T04:20:41.281Z,3.33
2018-12-13T04:23:09.550Z,2.67
2018-12-13T04:25:37.841Z,7.10
2018-12-13T04:28:06.209Z,9.63
2018-12-13T04:30:35.878Z,6.37
2018-12-13T04:33:04.112Z,4.30
2018-12-13T04:35:32.408Z,2.30
2018-12-13T04:38:00.713Z,6.30
2018-12-13T04:40:29.660Z,3.13
2018-12-13T04:42:58.663Z,2.52
2018-12-13T04:45:27.477Z,2.25
2018-12-13T04:47:57.413Z,2.90
2018-12-13T04:50:26.508Z,3.83
2018-12-13T04:52:55.358Z,2.90
2018-12-13T04:55:23.859Z,6.10
2018-12-13T04:57:52.754Z,5.43
2018-12-13T05:00:21.880Z,1.03
2018-12-13T05:02:50.364Z,2.97
2018-12-13T05:05:18.932Z,2.13
2018-12-13T05:07:47.874Z,3.25
2018-12-13T05:10:27.752Z,2.00
2018-12-13T05:12:56.434Z,0.88
2018-12-13T05:15:25.146Z,1.73
2018-12-13T05:17:54.727Z,6.33
2018-12-13T05:20:23.676Z,3.63
2018-12-13T05:22:52.655Z,1.10
2018-12-13T05:25:21.396Z,3.43
2018-12-13T05:27:50.262Z,2.10
2018-12-13T05:30:19.651Z,2.75
2018-12-13T05:32:48.846Z,1.90
2018-12-13T05:35:17.947Z,2.30
2018-12-13T05:37:48.386Z,1.50
2018-12-13T05:40:17.022Z,2.50
2018-12-13T05:42:46.000Z,2.23
2018-12-13T05:45:14.929Z,8.33
2018-12-13T05:47:43.465Z,1.95
2018-12-13T05:50:12.942Z,2.52
2018-12-13T05:52:41.777Z,4.67
2018-12-13T05:55:10.674Z,1.90
2018-12-13T05:57:39.250Z,5.47
2018-12-13T06:00:09.543Z,1.33
2018-12-13T06:02:38.203Z,4.28
2018-12-13T06:05:07.238Z,3.33
2018-12-13T06:07:37.887Z,1.55
2018-12-13T06:10:06.972Z,2.90
2018-12-13T06:12:36.531Z,2.27
2018-12-13T06:15:07.128Z,1.37
2018-12-13T06:17:36.910Z,11.30
2018-12-13T06:20:06.053Z,4.53
2018-12-13T06:22:36.180Z,1.70
2018-12-13T06:25:07.195Z,8.05
2018-12-13T06:27:36.211Z,2.70
2018-12-13T06:30:08.027Z,3.37
2018-12-13T06:32:39.038Z,3.40
2018-12-13T06:35:09.177Z,4.30
2018-12-13T06:37:38.140Z,3.67
2018-12-13T06:40:15.454Z,4.53
2018-12-13T06:42:42.248Z,6.58
2018-12-13T06:45:11.386Z,1.03
2018-12-13T06:47:40.194Z,7.73
2018-12-13T06:50:08.999Z,1.80
2018-12-13T06:52:37.813Z,2.03
2018-12-13T06:55:06.900Z,5.17
2018-12-13T06:57:35.606Z,2.40
2018-12-13T07:00:05.777Z,2.10
2018-12-13T07:02:34.426Z,2.03
2018-12-13T07:05:04.904Z,8.63
2018-12-13T07:07:35.003Z,5.37
2018-12-13T07:10:05.041Z,2.47
2018-12-13T07:12:34.470Z,4.65
2018-12-13T07:15:04.247Z,6.83
2018-12-13T07:17:34.709Z,1.92
2018-12-13T07:20:05.400Z,1.65
2018-12-13T07:22:36.281Z,1.65
2018-12-13T07:25:08.178Z,4.12
2018-12-13T07:27:40.760Z,3.45
2018-12-13T07:30:12.527Z,3.90
2018-12-13T07:32:42.298Z,2.10
2018-12-13T07:35:15.353Z,4.15
2018-12-13T07:37:46.324Z,5.20
2018-12-13T07:40:20.838Z,1.57
2018-12-13T07:42:55.063Z,3.12
2018-12-13T07:45:29.147Z,1.90
2018-12-13T07:48:19.261Z,4.30
2018-12-13T07:50:54.477Z,5.87
2018-12-13T07:53:27.648Z,6.78
2018-12-13T07:56:04.732Z,3.62
2018-12-13T07:58:37.794Z,2.87
2018-12-13T08:01:10.399Z,1.40
2018-12-13T08:03:40.837Z,3.35
2018-12-13T08:06:10.621Z,1.80
2018-12-13T08:08:39.689Z,2.65
2018-12-13T08:11:09.448Z,6.35
2018-12-13T08:13:40.421Z,1.75
2018-12-13T08:16:08.933Z,2.52
2018-12-13T08:18:38.871Z,5.10
2018-12-13T08:21:08.711Z,4.87
2018-12-13T08:23:37.156Z,2.33
2018-12-13T08:26:05.610Z,4.67
2018-12-13T08:28:34.031Z,8.77
2018-12-13T08:31:20.067Z,6.83
2018-12-13T08:33:49.718Z,7.05
2018-12-13T08:36:30.241Z,2.80
2018-12-13T08:39:00.443Z,5.53
2018-12-13T08:41:30.745Z,6.40
2018-12-13T08:44:03.425Z,1.90
2018-12-13T08:46:36.550Z,2.07
2018-12-13T08:49:03.947Z,5.43
2018-12-13T08:51:33.037Z,5.80
2018-12-13T08:54:05.890Z,2.80
2018-12-13T08:56:36.997Z,6.63
2018-12-13T08:59:07.346Z,5.90
2018-12-13T09:01:41.433Z,3.73
2018-12-13T09:04:11.272Z,15.43
2018-12-13T09:06:39.970Z,8.57
2018-12-13T09:09:09.041Z,11.27
2018-12-13T09:11:40.765Z,3.10
2018-12-13T09:14:10.341Z,19.37
2018-12-13T09:16:41.719Z,8.63
2018-12-13T09:19:10.613Z,6.10
2018-12-13T09:21:39.155Z,4.33
2018-12-13T09:24:07.528Z,5.03
2018-12-13T09:26:37.274Z,13.23
2018-12-13T09:29:05.985Z,7.20
2018-12-13T09:31:35.660Z,6.90
2018-12-13T09:34:05.968Z,3.60
2018-12-13T09:36:35.312Z,1.73
2018-12-13T09:39:05.357Z,8.13
2018-12-13T09:41:33.810Z,3.03
2018-12-13T09:44:02.310Z,3.93
2018-12-13T09:46:30.864Z,11.07
2018-12-13T09:48:59.320Z,7.60
2018-12-13T09:51:28.319Z,7.87
2018-12-13T09:53:57.118Z,3.80
2018-12-13T09:56:26.085Z,3.77
2018-12-13T09:58:54.408Z,9.47
2018-12-13T10:01:23.891Z,5.00
2018-12-13T10:03:53.168Z,2.53
2018-12-13T10:06:24.804Z,4.17
2018-12-13T10:08:54.237Z,3.43
2018-12-13T10:11:27.237Z,3.70
2018-12-13T10:13:56.327Z,4.40
2018-12-13T10:16:25.028Z,7.70
2018-12-13T10:18:53.519Z,1.30
2018-12-13T10:21:22.332Z,3.10
2018-12-13T10:24:09.126Z,4.20
2018-12-13T10:26:38.065Z,8.17
2018-12-13T10:29:09.434Z,3.23
2018-12-13T10:31:42.137Z,2.37
2018-12-13T10:34:10.516Z,5.37
2018-12-13T10:36:38.878Z,1.97
2018-12-13T10:39:08.405Z,5.40
2018-12-13T10:41:36.970Z,4.83
2018-12-13T10:44:05.295Z,7.40
2018-12-13T10:46:33.653Z,4.60
2018-12-13T10:49:01.987Z,6.20
2018-12-13T10:51:30.274Z,3.60
2018-12-13T10:53:58.801Z,6.27
2018-12-13T10:56:27.288Z,4.33
2018-12-13T10:58:56.233Z,3.43
2018-12-13T11:01:30.536Z,8.60
2018-12-13T11:03:59.342Z,5.07
2018-12-13T11:06:28.591Z,3.23
2018-12-13T11:08:59.568Z,3.70
2018-12-13T11:11:28.567Z,5.60
2018-12-13T11:20:25.476Z,2.43
2018-12-13T11:23:00.130Z,5.50
2018-12-13T11:28:16.559Z,3.43
2018-12-13T11:30:45.195Z,6.70
2018-12-13T11:33:13.753Z,9.10
2018-12-13T11:35:42.151Z,10.20
2018-12-13T11:38:10.468Z,16.43
2018-12-13T11:40:38.929Z,3.37
2018-12-13T11:43:07.820Z,7.80
2018-12-13T11:45:36.402Z,2.00
2018-12-13T11:48:04.994Z,6.10
2018-12-13T11:50:33.953Z,3.77
2018-12-13T11:53:02.414Z,5.27
2018-12-13T11:55:34.176Z,13.60
2018-12-13T11:58:03.522Z,7.90
2018-12-13T12:00:40.219Z,12.10
2018-12-13T12:03:09.672Z,6.17
2018-12-13T12:05:38.190Z,9.27
2018-12-13T12:08:07.646Z,6.90
2018-12-13T12:16:43.716Z,6.20
2018-12-13T12:19:12.602Z,4.33
2018-12-13T12:21:41.198Z,3.07
2018-12-13T12:24:09.797Z,3.10
2018-12-13T12:26:39.121Z,2.97
2018-12-13T12:29:07.505Z,4.17
2018-12-13T12:31:35.838Z,6.63
2018-12-13T12:34:04.257Z,2.43
2018-12-13T12:36:32.586Z,3.47
2018-12-13T12:39:00.998Z,3.43
2018-12-13T12:41:29.277Z,2.10
2018-12-13T12:43:57.735Z,9.60
2018-12-13T12:46:26.132Z,7.97
2018-12-13T12:48:54.474Z,7.20
2018-12-13T12:51:23.044Z,5.73
2018-12-13T12:53:51.345Z,39.87
2018-12-13T12:56:19.689Z,3.50
2018-12-13T12:58:48.186Z,2.20
2018-12-13T13:01:16.617Z,2.60
2018-12-13T13:03:45.024Z,6.90
2018-12-13T13:06:13.302Z,5.40
2018-12-13T13:08:41.575Z,7.97
2018-12-13T13:11:10.025Z,2.53
2018-12-13T13:13:38.519Z,3.57
2018-12-13T13:16:06.850Z,2.53
2018-12-13T13:18:38.999Z,4.00
2018-12-13T13:21:05.588Z,1.60
2018-12-13T13:23:34.609Z,5.60
2018-12-13T13:26:05.129Z,6.40
2018-12-13T13:28:34.094Z,8.93
2018-12-13T13:31:06.710Z,3.40
2018-12-13T13:33:35.250Z,4.40
2018-12-13T13:36:05.729Z,3.13
2018-12-13T13:38:34.201Z,4.13
2018-12-13T13:41:03.064Z,5.53
2018-12-13T13:43:32.372Z,1.63
2018-12-13T13:46:01.634Z,3.47
2018-12-13T13:48:30.589Z,3.90
2018-12-13T13:50:59.500Z,2.33
2018-12-13T13:53:28.539Z,6.13
2018-12-13T13:55:57.557Z,4.17
2018-12-13T13:58:26.469Z,2.73
2018-12-13T14:00:54.970Z,2.50
2018-12-13T14:03:23.809Z,2.20
2018-12-13T14:05:52.965Z,8.60
2018-12-13T14:08:21.371Z,5.87
2018-12-13T14:10:50.999Z,4.10
2018-12-13T14:13:19.692Z,2.57
2018-12-13T14:15:49.212Z,2.73
2018-12-13T14:18:18.605Z,6.40
2018-12-13T14:20:48.870Z,7.27
2018-12-13T14:23:17.680Z,1.10
2018-12-13T14:25:48.745Z,2.67
2018-12-13T14:28:17.132Z,2.27
2018-12-13T14:30:47.475Z,4.17
2018-12-13T14:33:24.613Z,5.17
2018-12-13T14:35:53.458Z,5.90
2018-12-13T14:38:21.788Z,5.70
2018-12-13T14:40:51.106Z,5.03
2018-12-13T14:43:19.420Z,1.20
2018-12-13T14:45:51.221Z,5.43
2018-12-13T14:48:19.814Z,11.20
2018-12-13T14:50:48.214Z,6.40
2018-12-13T14:53:16.499Z,9.73
2018-12-13T14:55:46.353Z,6.13
2018-12-13T14:58:15.018Z,17.90
2018-12-13T15:00:43.966Z,8.80
2018-12-13T15:03:12.498Z,13.13
2018-12-13T15:05:40.777Z,6.83
2018-12-13T15:08:09.138Z,8.73
2018-12-13T15:10:37.485Z,7.23
2018-12-13T15:13:06.383Z,1.83
2018-12-13T15:15:35.077Z,1.37
2018-12-13T15:18:03.378Z,1.10
2018-12-13T15:20:31.742Z,3.53
2018-12-13T15:23:01.742Z,1.10
2018-12-13T15:25:30.137Z,4.00
2018-12-13T15:27:58.449Z,6.33
2018-12-13T15:30:28.311Z,3.13
2018-12-13T15:32:56.605Z,6.50
2018-12-13T15:35:25.142Z,0.87
2018-12-13T15:37:53.710Z,1.50
2018-12-13T15:40:22.080Z,1.27
2018-12-13T15:42:50.837Z,3.43
2018-12-13T15:45:20.063Z,4.27
2018-12-13T15:47:48.919Z,4.20
2018-12-13T15:50:17.299Z,2.40
2018-12-13T15:52:45.599Z,16.37
2018-12-13T15:55:14.015Z,4.20
2018-12-13T15:57:42.303Z,4.00
2018-12-13T16:00:11.080Z,2.33
2018-12-13T16:02:39.546Z,3.47
2018-12-13T16:05:08.098Z,5.17
2018-12-13T16:07:52.158Z,2.57
2018-12-13T16:10:20.735Z,4.73
2018-12-13T16:12:49.089Z,1.27
2018-12-13T16:15:17.463Z,4.70
2018-12-13T16:17:45.945Z,4.13
2018-12-13T16:20:14.398Z,3.20
2018-12-13T16:22:43.181Z,7.93
2018-12-13T16:25:11.691Z,5.70
2018-12-13T16:27:41.667Z,6.90
2018-12-13T16:30:10.325Z,3.40
2018-12-13T16:32:38.799Z,3.00
2018-12-13T16:35:07.174Z,2.80
2018-12-13T16:37:35.421Z,5.27
2018-12-13T16:40:10.306Z,14.70
2018-12-13T16:42:35.396Z,3.20
2018-12-13T16:45:04.844Z,5.60
2018-12-13T16:47:37.778Z,5.13
2018-12-13T16:50:07.152Z,6.27
2018-12-13T16:52:35.760Z,8.67
2018-12-13T16:55:04.568Z,10.63
2018-12-13T16:57:33.652Z,14.20
2018-12-13T17:00:02.465Z,4.10
2018-12-13T17:02:41.636Z,3.90
2018-12-13T17:05:10.000Z,10.13
2018-12-13T17:10:17.776Z,23.60
2018-12-13T17:12:48.152Z,9.30
2018-12-13T17:15:19.372Z,1.53
2018-12-13T17:17:49.430Z,9.20
2018-12-13T17:20:19.421Z,2.97
2018-12-13T17:22:51.835Z,1.77
2018-12-13T17:25:22.207Z,2.23
2018-12-13T17:27:59.944Z,2.83
2018-12-13T17:30:29.391Z,12.63
2018-12-13T17:33:04.154Z,7.67
2018-12-13T17:35:38.289Z,5.07
2018-12-13T17:38:13.012Z,3.10
2018-12-13T17:40:49.304Z,4.30
2018-12-13T17:43:22.268Z,1.30
2018-12-13T17:45:56.001Z,2.30
2018-12-13T17:48:28.009Z,7.37
2018-12-13T17:51:02.132Z,5.00
2018-12-13T17:53:33.395Z,7.13
2018-12-13T17:56:05.471Z,8.40
2018-12-13T17:58:38.605Z,4.77
2018-12-13T18:01:08.889Z,8.37
2018-12-13T18:03:38.489Z,8.07
2018-12-13T18:06:06.931Z,5.90
2018-12-13T18:08:35.188Z,6.70
2018-12-13T18:11:03.578Z,12.07
2018-12-13T18:13:31.925Z,7.17
2018-12-13T18:16:00.198Z,11.43
2018-12-13T18:18:28.466Z,9.73
2018-12-13T18:20:56.828Z,8.67
2018-12-13T18:23:25.288Z,11.77
2018-12-13T18:25:53.621Z,12.83
2018-12-13T18:28:21.996Z,11.07
2018-12-13T18:30:50.404Z,9.80
2018-12-13T18:33:18.863Z,11.70
2018-12-13T18:35:47.113Z,12.97
2018-12-13T18:38:15.517Z,21.87
2018-12-13T18:40:43.942Z,18.53
2018-12-13T18:43:12.232Z,15.63
2018-12-13T18:45:41.077Z,29.03
2018-12-13T18:48:09.366Z,39.50
2018-12-13T18:50:37.977Z,17.30
2018-12-13T18:53:06.676Z,20.47
2018-12-13T18:55:34.966Z,12.00
2018-12-13T18:58:03.245Z,18.77
2018-12-13T19:00:31.747Z,10.27
2018-12-13T19:03:00.089Z,25.53
2018-12-13T19:05:28.366Z,22.00
2018-12-13T19:07:56.656Z,13.10
2018-12-13T19:10:25.042Z,17.43
2018-12-13T19:12:53.520Z,20.60
2018-12-13T19:15:21.785Z,7.90
2018-12-13T19:17:50.098Z,7.30
2018-12-13T19:20:41.375Z,5.73
2018-12-13T19:23:09.875Z,17.50
2018-12-13T19:25:44.883Z,5.00
2018-12-13T19:28:13.174Z,9.90
2018-12-13T19:30:41.448Z,18.17
2018-12-13T19:33:09.924Z,30.83
2018-12-13T19:35:38.305Z,33.40
2018-12-13T19:38:06.602Z,21.30
2018-12-13T19:40:34.963Z,25.53
2018-12-13T19:43:03.241Z,19.83
2018-12-13T19:45:31.523Z,19.93
2018-12-13T19:47:59.788Z,16.70
2018-12-13T19:50:28.081Z,29.40
2018-12-13T19:52:56.361Z,15.50
2018-12-13T19:55:29.877Z,20.37
2018-12-13T19:57:58.133Z,14.57
2018-12-13T20:00:26.393Z,11.90
2018-12-13T20:06:11.607Z,17.20
2018-12-13T20:08:53.734Z,13.90
2018-12-13T20:11:31.138Z,26.97
2018-12-13T20:13:59.525Z,11.87
2018-12-13T20:16:27.844Z,17.00
2018-12-13T20:18:56.306Z,34.10
2018-12-13T20:21:24.722Z,21.03
2018-12-13T20:23:53.125Z,19.90
2018-12-13T20:26:23.071Z,20.77
2018-12-13T20:29:03.986Z,27.60
2018-12-13T20:31:33.372Z,20.30
2018-12-13T20:34:11.699Z,29.67
2018-12-13T20:36:39.970Z,38.07
2018-12-13T20:39:09.256Z,13.57
2018-12-13T20:41:38.445Z,20.73
2018-12-13T20:44:06.751Z,21.53
2018-12-13T20:46:35.020Z,14.87
2018-12-13T20:49:03.375Z,45.53
2018-12-13T20:51:31.652Z,22.67
2018-12-13T20:53:59.920Z,23.67
2018-12-13T20:56:28.845Z,25.40
2018-12-13T20:58:57.188Z,36.00
2018-12-13T21:01:25.529Z,6.47
2018-12-13T21:03:53.861Z,14.27
2018-12-13T21:06:22.140Z,19.00
2018-12-13T21:08:50.595Z,11.43
2018-12-13T21:11:18.970Z,10.53
2018-12-13T21:13:47.557Z,8.60
2018-12-13T21:16:15.861Z,16.70
2018-12-13T21:18:44.228Z,12.27
2018-12-13T21:21:12.557Z,13.90
2018-12-13T21:23:45.508Z,10.23
2018-12-13T21:26:14.806Z,16.40
2018-12-13T21:28:52.873Z,5.03
2018-12-13T21:31:21.149Z,13.53
2018-12-13T21:33:49.469Z,4.20
2018-12-13T21:36:17.862Z,12.00
2018-12-13T21:38:46.548Z,19.43
2018-12-13T21:44:14.296Z,26.07
2018-12-13T21:46:44.164Z,6.60
2018-12-13T21:49:12.798Z,11.00
2018-12-13T21:51:41.074Z,15.83
2018-12-13T21:54:10.975Z,17.90
2018-12-13T21:56:43.151Z,6.90
2018-12-13T21:59:26.581Z,6.30
2018-12-13T22:02:06.673Z,9.20
2018-12-13T22:04:35.379Z,9.57
2018-12-13T22:10:15.186Z,12.90
2018-12-13T22:15:13.434Z,10.50
2018-12-13T22:17:44.736Z,3.63
2018-12-13T22:20:14.165Z,7.97
2018-12-13T22:22:42.538Z,5.97
2018-12-13T22:25:12.720Z,13.67
2018-12-13T22:27:41.042Z,9.07
2018-12-13T22:30:11.669Z,5.73
2018-12-13T22:32:40.167Z,13.57
2018-12-13T22:35:08.782Z,6.70
2018-12-13T22:37:37.117Z,8.90
2018-12-13T22:40:06.848Z,6.07
2018-12-13T22:42:36.597Z,11.37
2018-12-13T22:48:00.657Z,13.03
2018-12-13T22:50:30.645Z,5.07
2018-12-13T22:53:05.371Z,3.37
2018-12-13T22:58:35.580Z,3.73
2018-12-13T23:01:07.941Z,3.23
2018-12-13T23:03:36.684Z,3.03
2018-12-13T23:06:15.251Z,7.83
2018-12-13T23:08:43.635Z,9.60
2018-12-13T23:11:13.425Z,4.00
2018-12-13T23:13:41.740Z,6.90
2018-12-13T23:16:10.053Z,7.00
2018-12-13T23:18:38.435Z,8.90
2018-12-13T23:21:07.108Z,3.07
2018-12-13T23:23:35.584Z,5.70
2018-12-13T23:26:04.048Z,4.40
2018-12-13T23:28:34.599Z,5.63
2018-12-13T23:31:04.486Z,10.87
2018-12-13T23:33:33.422Z,9.03
2018-12-13T23:36:02.468Z,4.37
2018-12-13T23:38:31.691Z,7.77
2018-12-13T23:41:00.398Z,7.60
2018-12-13T23:43:29.026Z,5.87
